Time;durP1;ratioP1;P1;durP2;ratioP2;P2;SDS_P1;SDS_P2;PMS_P1;PMS_P2;Temp;Humidity;BMP_temperature;BMP_pressure;BME280_temperature;BME280_humidity;BME280_pressure;Samples;Min_cycle;Max_cycle;Signal;HPM_P1;HPM_P2
2022/01/21 00:01:51;;;;;;;13.23;7.07;;;;;;;6.80;100.00;100986.19;4938676;29;20166;-70
2022/01/21 00:04:37;;;;;;;11.85;7.05;;;;;;;6.89;100.00;101004.41;4924781;29;20027;-71
2022/01/21 00:07:22;;;;;;;8.98;6.25;;;;;;;7.04;100.00;100994.91;4938357;29;20024;-71
2022/01/21 00:10:09;;;;;;;12.15;6.95;;;;;;;7.33;100.00;101005.34;4938620;29;20461;-70
2022/01/21 00:12:56;;;;;;;12.35;6.93;;;;;;;7.15;100.00;101014.00;4938366;29;20047;-70
2022/01/21 00:15:42;;;;;;;10.77;6.72;;;;;;;6.99;100.00;101025.28;4938660;29;20059;-69
2022/01/21 00:18:28;;;;;;;10.82;7.00;;;;;;;7.04;100.00;101028.78;4938409;29;20087;-70
2022/01/21 00:30:27;;;;;;;11.60;7.15;;;;;;;6.74;100.00;101048.63;4938193;29;20027;-70
2022/01/21 00:33:13;;;;;;;12.35;7.03;;;;;;;6.79;100.00;101039.13;4938118;29;20372;-70
2022/01/21 00:35:59;;;;;;;11.25;6.90;;;;;;;7.14;100.00;101032.22;4937964;29;20024;-69
2022/01/21 00:38:45;;;;;;;12.48;7.68;;;;;;;6.92;100.00;101015.72;4938735;29;20043;-70
2022/01/21 00:41:35;;;;;;;11.82;7.65;;;;;;;6.47;100.00;101012.13;4938590;29;20368;-70
2022/01/21 00:44:21;;;;;;;12.75;7.78;;;;;;;6.75;100.00;101012.19;4938122;29;20302;-70
2022/01/21 00:47:07;;;;;;;11.70;7.70;;;;;;;6.50;100.00;101031.22;4937721;29;20024;-70
2022/01/21 00:49:53;;;;;;;11.93;7.88;;;;;;;6.65;100.00;101031.28;4937772;29;20036;-70
2022/01/21 00:52:39;;;;;;;15.05;8.65;;;;;;;6.71;100.00;101027.81;4924512;29;20122;-70
2022/01/21 00:55:28;;;;;;;12.05;8.05;;;;;;;6.64;100.00;101010.44;4937459;29;20055;-69
2022/01/21 00:58:14;;;;;;;11.52;7.75;;;;;;;6.56;100.00;101009.53;4938083;29;20167;-70
2022/01/21 01:00:59;;;;;;;13.07;7.90;;;;;;;6.60;100.00;101021.69;4924176;29;20032;-70
2022/01/21 01:03:45;;;;;;;13.90;7.80;;;;;;;6.20;100.00;101031.09;4938167;29;20027;-70
2022/01/21 01:06:31;;;;;;;12.25;7.88;;;;;;;6.27;100.00;101026.78;4923898;29;20038;-71
2022/01/21 01:09:17;;;;;;;12.25;7.90;;;;;;;6.19;100.00;101029.31;4938016;29;20348;-70
2022/01/21 01:12:23;;;;;;;12.35;7.30;;;;;;;6.23;100.00;101025.88;4937676;29;20428;-70
2022/01/21 01:21:19;;;;;;;11.18;7.22;;;;;;;6.44;100.00;101035.53;4938550;29;20376;-70
2022/01/21 01:29:59;;;;;;;10.25;7.15;;;;;;;6.20;100.00;101027.59;4937784;29;20027;-71
2022/01/21 01:32:47;;;;;;;11.15;7.72;;;;;;;6.38;100.00;101032.91;4937760;29;20039;-70
2022/01/21 01:35:33;;;;;;;12.52;7.30;;;;;;;6.47;100.00;101032.94;4923593;29;20476;-71
2022/01/21 01:38:41;;;;;;;11.27;8.10;;;;;;;6.19;100.00;101031.06;4923864;29;20505;-70
2022/01/21 01:41:35;;;;;;;11.20;7.68;;;;;;;5.91;100.00;101031.78;4936319;29;20032;-70
2022/01/21 01:50:33;;;;;;;11.45;7.85;;;;;;;6.04;100.00;101017.97;4937867;29;20417;-70
2022/01/21 01:53:22;;;;;;;11.40;8.30;;;;;;;5.97;100.00;101022.28;4937026;29;20031;-71
2022/01/21 01:56:11;;;;;;;11.60;7.93;;;;;;;5.91;100.00;101018.78;4938031;29;20369;-69
2022/01/21 01:58:58;;;;;;;12.20;8.63;;;;;;;5.85;100.00;101017.00;4937040;29;20445;-70
2022/01/21 02:01:56;;;;;;;11.38;7.97;;;;;;;5.84;100.00;101036.06;4936940;29;20032;-70
2022/01/21 02:04:47;;;;;;;11.45;8.02;;;;;;;5.83;100.00;101033.47;4937058;29;20171;-70
2022/01/21 02:07:33;;;;;;;12.40;8.20;;;;;;;5.86;100.00;101033.50;4936670;29;20111;-70
2022/01/21 02:10:18;;;;;;;11.90;7.40;;;;;;;5.75;100.00;101051.59;4937122;29;20028;-70
2022/01/21 02:13:17;;;;;;;11.25;7.85;;;;;;;5.58;100.00;101062.69;4937589;29;20354;-70
2022/01/21 02:16:19;;;;;;;12.15;7.95;;;;;;;5.58;100.00;101065.31;4937176;29;20453;-70
2022/01/21 02:22:10;;;;;;;13.68;8.20;;;;;;;5.91;100.00;101075.97;4937317;29;20031;-70
2022/01/21 02:24:59;;;;;;;11.45;7.55;;;;;;;5.88;100.00;101073.34;4923340;29;20096;-70
2022/01/21 02:27:47;;;;;;;15.02;8.43;;;;;;;5.68;100.00;101074.91;4936854;29;20024;-69
2022/01/21 02:30:33;;;;;;;10.55;7.45;;;;;;;5.64;100.00;101094.81;4936606;29;20063;-69
2022/01/21 02:33:18;;;;;;;13.63;8.90;;;;;;;5.58;100.00;101093.88;4937013;29;20070;-70
2022/01/21 02:36:04;;;;;;;11.18;7.82;;;;;;;5.61;100.00;101093.88;4936601;29;20024;-70
2022/01/21 02:38:53;;;;;;;13.48;8.45;;;;;;;5.56;100.00;101087.78;4937503;29;20544;-70
2022/01/21 02:41:39;;;;;;;12.00;8.25;;;;;;;5.80;100.00;101088.00;4936734;29;20147;-70
2022/01/21 02:44:25;;;;;;;11.73;8.38;;;;;;;5.44;100.00;101089.41;4924378;29;20174;-69
2022/01/21 02:50:54;;;;;;;11.85;7.90;;;;;;;5.62;100.00;101082.66;4937302;29;20449;-70
2022/01/21 02:56:34;;;;;;;11.38;7.78;;;;;;;5.68;100.00;101083.56;4940551;29;20031;-70
2022/01/21 02:59:19;;;;;;;12.05;8.48;;;;;;;5.38;100.00;101091.09;4926490;29;20027;-69
2022/01/21 03:02:05;;;;;;;11.05;7.78;;;;;;;5.31;100.00;101099.72;4940659;29;20020;-71
2022/01/21 03:07:37;;;;;;;11.13;7.75;;;;;;;5.31;100.00;101100.56;4940136;29;20441;-70
2022/01/21 03:25:08;;;;;;;12.38;8.13;;;;;;;5.61;100.00;101093.88;5464088;23;20059;-71
2022/01/21 03:27:53;;;;;;;11.52;7.82;;;;;;;5.55;100.00;101093.84;4920506;29;20414;-70
2022/01/21 03:30:40;;;;;;;13.18;7.72;;;;;;;5.32;100.00;101102.28;4919798;29;20082;-69
2022/01/21 03:33:26;;;;;;;12.00;8.02;;;;;;;5.46;100.00;101097.22;4906955;29;20504;-70
2022/01/21 03:36:12;;;;;;;11.90;6.93;;;;;;;5.14;100.00;101090.84;4920658;29;20084;-70
2022/01/21 03:38:59;;;;;;;12.43;8.00;;;;;;;5.14;100.00;101091.72;4920247;29;20039;-70
2022/01/21 03:41:44;;;;;;;14.15;8.70;;;;;;;5.13;100.00;101089.13;4920778;29;20442;-70
2022/01/21 03:44:30;;;;;;;10.90;7.75;;;;;;;5.07;100.00;101099.47;4920125;29;20087;-71
2022/01/21 03:47:16;;;;;;;12.93;8.18;;;;;;;4.98;100.00;101094.13;4919422;29;20039;-70
2022/01/21 03:50:19;;;;;;;9.65;7.35;;;;;;;5.15;100.00;101087.44;4920314;29;20054;-70
2022/01/21 03:53:05;;;;;;;10.18;7.43;;;;;;;5.03;100.00;101089.88;4905999;29;20059;-70
2022/01/21 03:55:51;;;;;;;11.90;8.05;;;;;;;5.05;100.00;101090.75;4919828;29;20369;-70
2022/01/21 03:58:37;;;;;;;12.00;8.27;;;;;;;5.03;100.00;101095.09;4919361;29;20040;-71
2022/01/21 04:01:24;;;;;;;10.95;7.35;;;;;;;4.98;100.00;101100.22;4919627;29;20028;-70
2022/01/21 04:04:10;;;;;;;10.52;7.40;;;;;;;4.85;100.00;101102.66;4920254;29;20366;-70
2022/01/21 04:06:56;;;;;;;10.70;7.13;;;;;;;4.75;100.00;101108.59;4920078;29;20384;-71
2022/01/21 04:09:42;;;;;;;11.48;7.32;;;;;;;4.90;100.00;101100.97;4919359;29;20366;-70
2022/01/21 04:12:27;;;;;;;11.73;7.00;;;;;;;4.76;100.00;101119.00;4920020;29;20040;-70
2022/01/21 04:15:14;;;;;;;13.18;7.53;;;;;;;4.85;100.00;101115.63;4919368;29;20039;-71
2022/01/21 04:17:59;;;;;;;10.88;7.75;;;;;;;4.82;100.00;101116.47;4919340;29;20078;-71
2022/01/21 04:20:48;;;;;;;11.25;7.57;;;;;;;4.88;100.00;101121.75;4920068;29;20051;-70
2022/01/21 04:23:34;;;;;;;10.63;6.70;;;;;;;5.00;100.00;101134.00;4920181;29;20039;-70
2022/01/21 04:26:20;;;;;;;11.82;7.18;;;;;;;4.98;100.00;101125.28;5136737;23;20142;-68
2022/01/21 04:29:05;;;;;;;10.48;6.95;;;;;;;4.84;100.00;101132.06;4937622;29;20027;-70
2022/01/21 04:31:51;;;;;;;12.05;7.50;;;;;;;4.71;100.00;101136.22;4937731;29;20095;-71
2022/01/21 04:34:37;;;;;;;11.00;7.38;;;;;;;4.62;100.00;101135.22;4925115;29;20027;-70
2022/01/21 04:37:23;;;;;;;12.52;7.78;;;;;;;4.76;100.00;101125.91;4938132;29;20016;-70
2022/01/21 04:40:13;;;;;;;11.02;7.38;;;;;;;4.91;100.00;101139.09;4924990;29;20090;-69
2022/01/21 04:49:09;;;;;;;10.25;6.85;;;;;;;5.05;100.00;101145.28;4938095;29;20028;-69
2022/01/21 04:52:03;;;;;;;11.15;6.78;;;;;;;4.93;100.00;101148.63;4937830;29;20055;-70
2022/01/21 04:54:50;;;;;;;10.88;6.97;;;;;;;4.86;100.00;101149.41;4924124;29;20047;-70
2022/01/21 04:57:37;;;;;;;9.75;6.43;;;;;;;4.83;100.00;101159.72;4938060;29;20032;-70
2022/01/21 05:00:22;;;;;;;9.52;6.38;;;;;;;4.99;100.00;101161.66;4937550;29;20027;-70
2022/01/21 05:03:08;;;;;;;8.48;6.05;;;;;;;4.90;100.00;101158.97;4937864;29;20372;-71
2022/01/21 05:05:54;;;;;;;7.65;5.28;;;;;;;4.87;100.00;101161.50;4937668;29;20046;-70
2022/01/21 05:11:38;;;;;;;9.93;6.70;;;;;;;4.88;100.00;101160.69;4937915;29;20483;-70
2022/01/21 05:14:45;;;;;;;7.95;6.05;;;;;;;4.76;100.00;101162.25;4937688;29;20036;-71
2022/01/21 05:17:30;;;;;;;8.52;6.13;;;;;;;4.83;100.00;101167.53;4937020;29;20038;-71
2022/01/21 05:20:17;;;;;;;9.35;5.50;;;;;;;4.87;100.00;101174.50;4938514;29;20448;-70
2022/01/21 05:23:03;;;;;;;9.65;6.10;;;;;;;4.91;100.00;101178.88;4937553;29;20456;-71
2022/01/21 05:25:49;;;;;;;10.00;6.28;;;;;;;4.73;100.00;101173.47;4937446;29;20031;-71
2022/01/21 05:28:35;;;;;;;9.90;5.97;;;;;;;4.82;100.00;101162.31;4937052;29;20040;-71
2022/01/21 05:31:21;;;;;;;8.07;5.68;;;;;;;4.81;100.00;101138.09;4937166;29;20417;-71
2022/01/21 05:34:07;;;;;;;10.10;6.38;;;;;;;5.00;100.00;101154.75;4937533;29;20368;-70
2022/01/21 05:36:53;;;;;;;10.13;6.30;;;;;;;5.04;100.00;101156.53;4937503;29;20027;-70
2022/01/21 05:39:38;;;;;;;8.07;5.43;;;;;;;4.90;100.00;101161.56;4937726;29;20024;-71
2022/01/21 05:42:24;;;;;;;10.07;6.65;;;;;;;4.90;100.00;101166.75;4923548;29;20027;-71
2022/01/21 05:48:15;;;;;;;10.23;5.55;;;;;;;4.94;100.00;101191.91;4936723;29;20023;-70
2022/01/21 05:51:01;;;;;;;8.75;5.47;;;;;;;5.04;100.00;101232.72;4937234;29;20024;-71
2022/01/21 05:53:46;;;;;;;6.47;4.80;;;;;;;5.13;100.00;101226.75;4937086;29;20039;-71
2022/01/21 05:56:32;;;;;;;6.47;4.55;;;;;;;4.99;100.00;101249.94;4923713;29;20023;-70
2022/01/21 05:59:18;;;;;;;6.28;4.68;;;;;;;5.17;100.00;101239.81;4936881;29;20035;-68
2022/01/21 06:02:05;;;;;;;7.95;4.57;;;;;;;5.00;100.00;101254.31;4937345;29;20039;-70
2022/01/21 06:04:51;;;;;;;7.93;4.90;;;;;;;5.14;100.00;101262.25;4937084;29;20449;-70
2022/01/21 06:07:39;;;;;;;6.78;4.82;;;;;;;5.08;100.00;101270.88;4936526;29;20066;-71
2022/01/21 06:10:25;;;;;;;6.80;4.50;;;;;;;4.97;100.00;101277.63;4937342;29;20047;-70
2022/01/21 06:13:15;;;;;;;5.63;4.40;;;;;;;4.90;100.00;101278.38;4937085;29;20024;-72
2022/01/21 06:16:01;;;;;;;6.70;4.70;;;;;;;4.70;100.00;101286.72;4937345;29;20041;-71
2022/01/21 06:18:52;;;;;;;7.65;5.15;;;;;;;4.89;100.00;101286.16;4937052;29;20038;-74
2022/01/21 06:21:38;;;;;;;7.13;4.93;;;;;;;4.86;100.00;101286.97;4937304;29;20042;-70
2022/01/21 06:24:24;;;;;;;6.95;4.63;;;;;;;4.94;100.00;101290.56;4937300;29;20041;-71
2022/01/21 06:27:10;;;;;;;6.00;4.65;;;;;;;4.84;100.00;101295.59;4937800;29;20051;-70
2022/01/21 06:29:56;;;;;;;7.75;4.93;;;;;;;4.90;100.00;101308.66;4940824;29;20035;-70
2022/01/21 06:32:42;;;;;;;6.85;5.20;;;;;;;4.86;100.00;101317.25;4927900;29;20079;-70
2022/01/21 06:35:28;;;;;;;6.60;5.00;;;;;;;4.90;100.00;101321.63;4940577;29;20091;-70
2022/01/21 06:38:14;;;;;;;7.75;5.13;;;;;;;4.96;100.00;101317.44;4927152;29;20098;-70
2022/01/21 06:41:00;;;;;;;6.90;4.60;;;;;;;5.14;100.00;101324.59;4940675;29;20344;-69
2022/01/21 06:43:46;;;;;;;7.88;4.95;;;;;;;4.99;100.00;101332.19;4926795;29;20110;-69
2022/01/21 06:46:32;;;;;;;7.78;5.22;;;;;;;5.14;100.00;101324.59;4940102;29;20094;-70
2022/01/21 06:49:18;;;;;;;6.50;4.60;;;;;;;5.10;100.00;101315.88;4939833;29;20035;-70
2022/01/21 06:52:04;;;;;;;6.85;5.00;;;;;;;4.87;100.00;101322.47;4927204;29;20524;-70
2022/01/21 06:54:50;;;;;;;7.30;5.35;;;;;;;5.22;100.00;101318.66;4939865;29;20028;-69
2022/01/21 06:57:39;;;;;;;11.73;6.63;;;;;;;5.44;100.00;101305.06;4940021;29;20461;-70
2022/01/21 07:00:25;;;;;;;6.63;5.00;;;;;;;5.11;100.00;101312.44;4940146;29;20391;-70
2022/01/21 07:03:11;;;;;;;9.52;5.38;;;;;;;5.11;100.00;101312.44;4940035;29;20036;-70
2022/01/21 07:05:56;;;;;;;7.45;4.45;;;;;;;5.21;100.00;101311.72;4939986;29;20110;-70
2022/01/21 07:08:42;;;;;;;7.53;5.05;;;;;;;4.87;100.00;101311.22;4926408;29;20520;-70
2022/01/21 07:11:28;;;;;;;7.30;4.47;;;;;;;4.96;100.00;101298.38;4939745;29;20039;-70
2022/01/21 07:14:13;;;;;;;7.03;4.10;;;;;;;4.98;100.00;101292.34;4939686;29;20428;-71
2022/01/21 07:16:59;;;;;;;7.00;4.40;;;;;;;5.15;100.00;101306.44;4940362;29;20371;-72
2022/01/21 07:19:45;;;;;;;5.32;3.90;;;;;;;4.90;100.00;101306.06;4939571;29;20028;-72
2022/01/21 07:22:31;;;;;;;5.50;4.15;;;;;;;5.25;100.00;101312.63;4940842;29;20042;-72
2022/01/21 07:25:17;;;;;;;8.68;4.47;;;;;;;5.02;100.00;101308.81;4939784;29;20360;-72
2022/01/21 07:28:05;;;;;;;5.93;3.90;;;;;;;5.14;100.00;101304.69;4939726;29;20094;-72
2022/01/21 07:30:51;;;;;;;11.50;4.05;;;;;;;5.19;100.00;101312.56;4939533;29;20063;-72
2022/01/21 07:33:38;;;;;;;7.32;4.10;;;;;;;5.28;100.00;101317.88;4939488;29;20046;-73
2022/01/21 07:36:24;;;;;;;6.25;3.88;;;;;;;5.50;100.00;101311.22;4926036;29;20041;-73
2022/01/21 07:39:13;;;;;;;5.72;3.92;;;;;;;4.89;100.00;101318.19;4939595;29;20075;-72
2022/01/21 07:41:59;;;;;;;8.75;4.70;;;;;;;5.14;100.00;101304.69;4939298;29;20028;-72
2022/01/21 07:44:49;;;;;;;6.35;4.15;;;;;;;5.12;100.00;101311.59;4939726;29;20429;-73
2022/01/21 07:47:35;;;;;;;8.65;4.60;;;;;;;5.30;100.00;101310.94;4925709;29;20035;-72
2022/01/21 07:50:20;;;;;;;6.85;4.53;;;;;;;5.15;100.00;101311.63;4926125;29;20040;-72
2022/01/21 07:53:07;;;;;;;6.07;4.10;;;;;;;4.88;100.00;101316.44;4939482;29;20123;-72
2022/01/21 07:55:53;;;;;;;6.32;3.92;;;;;;;4.96;100.00;101330.41;4939562;29;20035;-72
2022/01/21 07:58:38;;;;;;;8.00;4.65;;;;;;;5.04;100.00;101313.22;4938716;29;20417;-72
2022/01/21 08:01:24;;;;;;;5.72;4.13;;;;;;;5.35;100.00;101325.75;4940351;29;20023;-72
2022/01/21 08:04:10;;;;;;;7.32;4.40;;;;;;;5.27;100.00;101329.13;4926449;29;20103;-73
2022/01/21 08:06:57;;;;;;;6.65;3.92;;;;;;;5.18;100.00;101334.16;4938622;29;20110;-72
2022/01/21 08:09:43;;;;;;;9.52;4.03;;;;;;;5.15;100.00;101335.00;4938877;29;20038;-72
2022/01/21 08:12:28;;;;;;;7.55;3.90;;;;;;;4.97;100.00;101337.34;4938616;29;20484;-73
2022/01/21 08:15:14;;;;;;;9.95;4.35;;;;;;;5.07;100.00;101346.16;4938846;29;20036;-72
2022/01/21 08:18:00;;;;;;;7.50;4.07;;;;;;;4.99;100.00;101346.00;4925274;29;20070;-73
2022/01/21 08:20:46;;;;;;;6.05;4.22;;;;;;;5.10;100.00;101346.16;4938907;29;20318;-73
2022/01/21 08:23:32;;;;;;;8.43;4.40;;;;;;;5.01;100.00;101348.63;4938460;29;20491;-72
2022/01/21 08:26:21;;;;;;;7.28;4.55;;;;;;;4.87;100.00;101357.97;4938695;29;20055;-73
2022/01/21 08:29:07;;;;;;;8.05;4.45;;;;;;;5.05;100.00;101361.69;4925069;29;20059;-72
2022/01/21 08:31:54;;;;;;;7.97;4.43;;;;;;;5.03;100.00;101358.19;4938427;29;20023;-72
2022/01/21 08:34:40;;;;;;;8.70;4.53;;;;;;;5.17;100.00;101368.78;4939458;29;20043;-72
2022/01/21 08:37:26;;;;;;;7.95;4.50;;;;;;;5.12;100.00;101363.56;4924473;29;20062;-73
2022/01/21 08:40:12;;;;;;;9.25;4.30;;;;;;;4.92;100.00;101364.97;4924938;29;20028;-73
2022/01/21 08:43:01;;;;;;;6.95;4.45;;;;;;;5.10;100.00;101379.94;4938592;29;20038;-73
2022/01/21 08:45:47;;;;;;;8.77;4.80;;;;;;;4.95;100.00;101380.56;4924557;29;20024;-73
2022/01/21 08:48:33;;;;;;;8.10;4.75;;;;;;;5.01;100.00;101374.59;4938458;29;20102;-73
2022/01/21 08:51:25;;;;;;;8.05;5.05;;;;;;;5.00;100.00;101380.66;4924265;29;20044;-73
2022/01/21 08:54:11;;;;;;;10.65;5.50;;;;;;;5.04;100.00;101370.34;4937773;29;20023;-72
2022/01/21 08:56:59;;;;;;;7.80;5.10;;;;;;;4.93;100.00;101382.28;4937689;29;20456;-73
2022/01/21 08:59:48;;;;;;;9.65;4.90;;;;;;;5.03;100.00;101383.31;4938742;29;20059;-73
2022/01/21 09:02:34;;;;;;;9.90;4.70;;;;;;;5.03;100.00;101378.13;4937873;29;20038;-73
2022/01/21 09:05:20;;;;;;;9.73;5.10;;;;;;;5.26;100.00;101379.31;4937477;29;20019;-73
2022/01/21 09:08:06;;;;;;;8.13;5.30;;;;;;;5.34;100.00;101365.59;4942285;29;20038;-71
2022/01/21 09:10:53;;;;;;;10.23;5.38;;;;;;;5.47;100.00;101372.69;4937625;29;20054;-74
2022/01/21 09:13:41;;;;;;;9.05;5.50;;;;;;;5.38;100.00;101388.16;4937240;29;20123;-73
2022/01/21 09:16:27;;;;;;;9.50;4.40;;;;;;;5.27;100.00;101375.88;4937619;29;20421;-72
2022/01/21 09:19:14;;;;;;;8.57;4.78;;;;;;;5.23;100.00;101356.75;4937215;29;20373;-73
2022/01/21 09:22:02;;;;;;;6.88;4.60;;;;;;;4.98;100.00;101366.75;4911346;29;20046;-72
2022/01/21 09:24:50;;;;;;;8.82;4.95;;;;;;;5.06;100.00;101362.56;4937312;29;20039;-73
2022/01/21 09:27:36;;;;;;;10.57;4.80;;;;;;;5.14;100.00;101363.53;4937346;29;20099;-74
2022/01/21 09:30:22;;;;;;;8.73;4.82;;;;;;;5.39;100.00;101358.72;4937233;29;20042;-73
2022/01/21 09:33:08;;;;;;;10.93;5.32;;;;;;;5.36;100.00;101363.88;4924066;29;20050;-74
2022/01/21 09:35:54;;;;;;;8.63;5.57;;;;;;;5.61;100.00;101357.28;4937069;29;20529;-74
2022/01/21 09:38:40;;;;;;;12.63;4.90;;;;;;;5.43;100.00;101351.84;4924340;29;20071;-73
2022/01/21 09:41:29;;;;;;;7.90;4.78;;;;;;;5.72;100.00;101350.50;4923773;29;20126;-73
2022/01/21 09:44:20;;;;;;;9.23;5.40;;;;;;;5.56;100.00;101351.16;4924400;29;20131;-73
2022/01/21 09:47:06;;;;;;;9.68;4.88;;;;;;;5.52;100.00;101351.09;4937313;29;20028;-75
2022/01/21 09:49:54;;;;;;;8.02;4.95;;;;;;;5.33;100.00;101353.47;4923490;29;20032;-74
2022/01/21 09:52:43;;;;;;;7.95;4.85;;;;;;;5.55;100.00;101351.13;4937512;29;20104;-75
2022/01/21 09:55:32;;;;;;;10.40;5.10;;;;;;;5.53;100.00;101355.41;4937037;29;20067;-73
2022/01/21 09:58:18;;;;;;;12.52;5.47;;;;;;;5.34;100.00;101359.50;4937642;29;20054;-74
2022/01/21 10:01:08;;;;;;;8.45;5.13;;;;;;;5.38;100.00;101349.19;4923457;29;20353;-73
2022/01/21 10:03:54;;;;;;;10.40;5.10;;;;;;;5.38;100.00;101342.25;4929494;29;20123;-73
2022/01/21 10:06:42;;;;;;;11.45;5.03;;;;;;;5.40;100.00;101331.03;4927282;29;20058;-73
2022/01/21 10:09:28;;;;;;;9.73;5.60;;;;;;;5.73;99.66;101343.53;4941214;29;20058;-73
2022/01/21 10:12:15;;;;;;;8.90;4.57;;;;;;;5.67;96.16;101335.69;4940730;29;20028;-74
2022/01/21 10:15:03;;;;;;;8.20;4.82;;;;;;;6.04;93.67;101330.97;4940909;29;20046;-73
2022/01/21 10:18:24;;;;;;;9.57;4.32;;;;;;;6.16;91.14;101336.28;4926975;29;20034;-73
2022/01/21 10:21:12;;;;;;;9.50;4.22;;;;;;;6.11;88.87;101326.69;4941423;29;20098;-72
2022/01/21 10:24:12;;;;;;;10.43;4.40;;;;;;;6.40;86.77;101336.53;4940580;29;20115;-72
2022/01/21 10:26:59;;;;;;;9.15;4.75;;;;;;;6.54;83.85;101329.69;4940476;29;20051;-72
2022/01/21 10:29:46;;;;;;;9.55;5.40;;;;;;;6.93;80.22;101323.91;4940261;29;20032;-72
2022/01/21 10:32:35;;;;;;;6.40;3.90;;;;;;;6.32;79.90;101322.56;4941016;29;20338;-73
2022/01/21 10:35:26;;;;;;;8.07;4.10;;;;;;;6.49;79.04;101325.31;4940461;29;20046;-72
2022/01/21 10:38:29;;;;;;;8.68;4.28;;;;;;;6.48;73.82;101319.25;4926804;29;20055;-72
2022/01/21 10:41:28;;;;;;;9.63;4.32;;;;;;;6.65;71.94;101315.03;4940361;29;20023;-72
2022/01/21 10:44:17;;;;;;;8.75;4.35;;;;;;;6.45;72.79;101313.13;4940755;29;20179;-74
2022/01/21 10:47:08;;;;;;;11.43;4.50;;;;;;;6.80;71.74;101316.88;4926675;29;20118;-72
2022/01/21 10:50:02;;;;;;;6.88;4.30;;;;;;;6.71;70.72;101306.41;4940587;29;20435;-73
2022/01/21 10:52:53;;;;;;;8.13;4.40;;;;;;;6.72;69.47;101301.22;4927050;29;20055;-73
2022/01/21 10:55:39;;;;;;;10.55;4.10;;;;;;;6.65;69.98;101295.94;4926582;29;20031;-72
2022/01/21 10:58:27;;;;;;;7.53;4.35;;;;;;;6.93;70.16;101288.34;4940640;29;20032;-71
2022/01/21 11:01:20;;;;;;;6.40;4.30;;;;;;;6.89;69.53;101283.97;4941013;29;20471;-72
2022/01/21 11:04:12;;;;;;;7.07;4.53;;;;;;;7.24;69.92;101295.44;4940277;29;20032;-72
2022/01/21 11:06:59;;;;;;;7.70;3.72;;;;;;;7.27;68.50;101284.19;4939378;29;20031;-72
2022/01/21 11:09:45;;;;;;;9.18;4.60;;;;;;;7.48;69.10;101287.72;4939807;29;20028;-72
2022/01/21 11:12:36;;;;;;;8.63;4.65;;;;;;;7.14;70.42;101288.44;4939493;29;20091;-73
2022/01/21 11:15:22;;;;;;;8.18;4.70;;;;;;;7.03;70.50;101284.06;4939868;29;20038;-73
2022/01/21 11:18:10;;;;;;;7.90;4.40;;;;;;;6.92;70.21;101290.94;4939768;29;20024;-72
2022/01/21 11:21:10;;;;;;;9.27;5.00;;;;;;;6.63;69.78;101288.09;4926798;29;20470;-72
2022/01/21 11:24:04;;;;;;;8.00;5.00;;;;;;;6.51;70.20;101288.00;4926254;29;20440;-72
2022/01/21 11:27:08;;;;;;;8.38;4.85;;;;;;;6.73;69.46;101282.13;4926360;29;20143;-72
2022/01/21 11:29:54;;;;;;;6.82;4.20;;;;;;;6.63;69.66;101282.91;4926102;29;20032;-72
2022/01/21 11:32:40;;;;;;;8.13;4.40;;;;;;;6.68;69.48;101283.84;4939331;29;20059;-72
2022/01/21 11:35:32;;;;;;;8.07;4.35;;;;;;;6.55;70.94;101287.19;4939181;29;20032;-74
2022/01/21 11:38:22;;;;;;;8.02;4.50;;;;;;;6.58;70.92;101283.72;4926350;29;20445;-73
2022/01/21 11:41:08;;;;;;;7.50;4.68;;;;;;;6.83;70.09;101283.91;4925964;29;20031;-73
2022/01/21 11:44:01;;;;;;;7.65;4.53;;;;;;;6.60;71.25;101279.41;4939900;29;20383;-73
2022/01/21 11:47:13;;;;;;;8.65;4.13;;;;;;;6.71;71.11;101286.44;4939430;29;20032;-72
2022/01/21 11:50:02;;;;;;;11.15;4.50;;;;;;;6.58;72.26;101283.72;4925763;29;20368;-73
2022/01/21 11:52:48;;;;;;;9.27;4.22;;;;;;;6.52;71.58;101278.47;4939059;29;20032;-75
2022/01/21 11:55:38;;;;;;;7.28;4.57;;;;;;;6.50;72.11;101281.06;4926253;29;20027;-72
2022/01/21 11:58:24;;;;;;;15.80;5.00;;;;;;;6.41;72.00;101278.41;4939281;29;20035;-73
2022/01/21 12:01:39;;;;;;;9.30;5.55;;;;;;;6.29;72.81;101280.00;4925333;29;20079;-73
2022/01/21 12:04:31;;;;;;;7.35;4.25;;;;;;;6.31;70.75;101280.91;4925497;29;20035;-72
2022/01/21 12:07:36;;;;;;;8.68;4.80;;;;;;;6.27;70.18;101292.16;4924997;29;20386;-72
2022/01/21 12:10:22;;;;;;;8.18;4.10;;;;;;;6.38;69.14;101274.91;4925465;29;20031;-72
2022/01/21 12:13:10;;;;;;;8.45;4.75;;;;;;;6.47;69.09;101288.00;4925084;29;20106;-72
2022/01/21 12:19:20;;;;;;;6.80;4.30;;;;;;;6.56;69.40;101275.03;4939060;29;20099;-72
2022/01/21 12:22:13;;;;;;;9.55;4.40;;;;;;;6.51;69.90;101268.94;4939928;29;20087;-71
2022/01/21 12:25:13;;;;;;;8.63;4.57;;;;;;;6.41;69.95;101265.38;4938611;29;20028;-73
2022/01/21 12:28:20;;;;;;;8.90;4.80;;;;;;;6.42;69.76;101274.06;4938043;29;20039;-73
2022/01/21 12:31:07;;;;;;;9.18;4.50;;;;;;;6.17;70.95;101274.72;4938346;29;20032;-73
2022/01/21 12:34:14;;;;;;;7.45;4.63;;;;;;;5.96;72.67;101271.91;4938998;29;20110;-73
2022/01/21 12:37:12;;;;;;;8.25;4.75;;;;;;;6.08;72.14;101270.31;4938907;29;20043;-72
2022/01/21 12:39:57;;;;;;;8.52;4.70;;;;;;;6.09;71.07;101268.56;4924977;29;20032;-72
2022/01/21 12:42:43;;;;;;;12.95;4.63;;;;;;;6.37;69.02;101268.81;4938132;29;20133;-73
2022/01/21 12:45:29;;;;;;;9.35;4.78;;;;;;;6.17;69.23;101266.91;4938758;29;20098;-72
2022/01/21 12:48:35;;;;;;;9.20;4.55;;;;;;;6.27;70.41;101260.94;4937779;29;20388;-72
2022/01/21 12:57:34;;;;;;;7.82;4.15;;;;;;;5.98;67.98;101278.88;4880679;29;20483;-73
2022/01/21 13:00:19;;;;;;;8.77;4.47;;;;;;;5.97;67.34;101281.44;4938274;29;20373;-73
2022/01/21 13:03:32;;;;;;;8.85;3.97;;;;;;;5.94;67.96;101277.09;4937882;29;20035;-72
2022/01/21 13:06:32;;;;;;;9.68;4.38;;;;;;;5.82;68.44;101279.56;4937506;29;20035;-73
2022/01/21 13:09:25;;;;;;;7.32;4.20;;;;;;;6.10;68.16;101284.19;4924289;29;20055;-74
2022/01/21 13:12:13;;;;;;;7.68;4.18;;;;;;;5.71;68.90;101282.88;4937526;29;20031;-73
2022/01/21 13:15:01;;;;;;;7.70;4.70;;;;;;;5.61;69.13;101287.09;4937816;29;20031;-71
2022/01/21 13:17:57;;;;;;;9.07;4.85;;;;;;;5.67;69.63;101282.00;4923844;29;20039;-73
2022/01/21 13:20:46;;;;;;;7.95;4.35;;;;;;;5.94;68.04;101291.84;4923831;29;20028;-73
2022/01/21 13:23:51;;;;;;;9.85;4.43;;;;;;;5.60;67.23;101289.69;4937491;29;20076;-73
2022/01/21 13:26:39;;;;;;;8.82;3.75;;;;;;;5.56;67.22;101283.59;4923529;29;20043;-74
2022/01/21 13:29:42;;;;;;;9.93;4.22;;;;;;;5.64;67.34;101283.66;4937045;29;20097;-73
2022/01/21 13:32:27;;;;;;;10.00;4.65;;;;;;;5.91;67.15;101277.06;4937594;29;20361;-73
2022/01/21 13:35:17;;;;;;;9.00;4.63;;;;;;;5.73;66.85;101271.63;4937190;29;20041;-72
2022/01/21 13:38:08;;;;;;;10.27;3.95;;;;;;;5.66;66.46;101276.75;4923603;29;20028;-76
2022/01/21 13:40:57;;;;;;;6.82;4.15;;;;;;;5.84;65.25;101274.38;4937652;29;20039;-73
2022/01/21 13:43:45;;;;;;;8.13;3.78;;;;;;;5.74;64.57;101272.53;4936891;29;20020;-73
2022/01/21 13:46:31;;;;;;;9.77;4.10;;;;;;;5.72;63.94;101279.41;4923530;29;20032;-72
2022/01/21 13:49:21;;;;;;;10.35;3.88;;;;;;;5.63;64.14;101289.72;4923525;29;20023;-73
2022/01/21 13:52:06;;;;;;;8.98;3.75;;;;;;;5.72;64.56;101287.22;4937230;29;20477;-73
2022/01/21 14:00:33;;;;;;;10.75;4.50;;;;;;;5.73;65.61;101283.75;4954386;29;20424;-74
2022/01/21 14:03:23;;;;;;;14.63;4.35;;;;;;;5.59;66.24;101291.44;4956240;29;20050;-71
2022/01/21 14:06:17;;;;;;;9.63;4.40;;;;;;;5.78;66.35;101285.56;4955722;28;20042;-73
2022/01/21 14:09:04;;;;;;;7.97;3.40;;;;;;;5.64;67.59;101287.16;4956283;29;20023;-73
2022/01/21 14:11:50;;;;;;;5.32;2.80;;;;;;;5.40;68.47;101286.84;4956227;29;20031;-72
2022/01/21 14:14:35;;;;;;;7.72;2.60;;;;;;;5.34;69.60;101286.75;4956446;29;20027;-73
2022/01/21 14:17:24;;;;;;;5.38;2.60;;;;;;;5.35;70.22;101279.00;4955721;28;20118;-74
2022/01/21 14:20:19;;;;;;;7.03;3.08;;;;;;;5.22;70.97;101287.50;4956006;29;20169;-72
2022/01/21 14:23:05;;;;;;;6.90;2.97;;;;;;;5.22;71.89;101277.09;4942135;29;20031;-72
2022/01/21 14:25:52;;;;;;;9.18;3.20;;;;;;;5.10;73.96;101278.66;4942241;28;20074;-73